Time;durP1;ratioP1;P1;durP2;ratioP2;P2;SDS_P1;SDS_P2;PMS_P1;PMS_P2;Temp;Humidity;BMP_temperature;BMP_pressure;BME280_temperature;BME280_humidity;BME280_pressure;Samples;Min_cycle;Max_cycle;Signal;HPM_P1;HPM_P2
2022/01/08 00:01:00;;;;;;;4.30;3.47;;;-1.60;99.90;;;;;;5072673;28;20229;-77
2022/01/08 00:03:36;;;;;;;4.50;3.90;;;-1.60;99.90;;;;;;5072640;28;20205;-77
2022/01/08 00:06:06;;;;;;;4.57;3.97;;;-1.60;99.90;;;;;;5072506;28;20212;-77
2022/01/08 00:08:37;;;;;;;6.73;4.27;;;-1.60;99.90;;;;;;5072680;28;20220;-77
2022/01/08 00:11:10;;;;;;;8.30;4.73;;;-1.60;99.90;;;;;;5073039;28;20228;-77
2022/01/08 00:13:40;;;;;;;4.23;3.43;;;-1.60;99.90;;;;;;5073128;28;20228;-77
2022/01/08 00:16:10;;;;;;;5.90;4.30;;;-1.60;99.90;;;;;;5086561;28;20240;-78
2022/01/08 00:18:39;;;;;;;6.27;4.37;;;-1.70;99.90;;;;;;5073071;28;20301;-78
2022/01/08 00:21:07;;;;;;;4.90;4.30;;;-1.60;99.90;;;;;;5072510;28;20243;-77
2022/01/08 00:23:35;;;;;;;4.37;3.57;;;-1.60;99.90;;;;;;5072928;28;20225;-77
2022/01/08 00:26:04;;;;;;;4.07;3.47;;;-1.50;99.90;;;;;;5072329;28;20248;-78
2022/01/08 00:28:33;;;;;;;4.17;3.63;;;-1.60;99.90;;;;;;5072906;28;20298;-77
2022/01/08 00:31:03;;;;;;;3.77;3.37;;;-1.50;99.90;;;;;;5072430;28;20237;-77
2022/01/08 00:33:33;;;;;;;4.67;4.20;;;-1.40;99.90;;;;;;5073301;28;20200;-77
2022/01/08 00:36:01;;;;;;;3.87;3.43;;;-1.40;99.90;;;;;;5072702;28;20216;-78
2022/01/08 00:38:30;;;;;;;3.83;3.40;;;-1.30;99.90;;;;;;5072701;28;20288;-77
2022/01/08 00:40:58;;;;;;;4.33;3.23;;;-1.30;99.90;;;;;;5072554;28;20200;-77
2022/01/08 00:43:27;;;;;;;3.40;3.07;;;-1.20;99.90;;;;;;5072634;28;20224;-78
2022/01/08 00:45:55;;;;;;;7.17;4.40;;;-1.20;99.90;;;;;;5072468;28;20311;-77
2022/01/08 00:48:24;;;;;;;4.97;3.80;;;-1.10;99.90;;;;;;5072711;28;20244;-78
2022/01/08 00:50:54;;;;;;;4.83;3.50;;;-1.10;99.90;;;;;;5072583;28;20236;-78
2022/01/08 00:53:25;;;;;;;4.00;3.60;;;-1.00;99.90;;;;;;5072550;28;20208;-77
2022/01/08 00:55:53;;;;;;;4.03;3.63;;;-1.00;99.90;;;;;;5072999;28;20256;-77
2022/01/08 00:58:21;;;;;;;7.07;3.67;;;-0.90;99.90;;;;;;5072900;28;20283;-78
2022/01/08 01:00:50;;;;;;;4.83;3.83;;;-0.90;99.90;;;;;;5072390;28;20201;-78
2022/01/08 01:03:18;;;;;;;4.53;3.40;;;-0.90;99.90;;;;;;5072901;28;20218;-78
2022/01/08 01:05:47;;;;;;;6.80;3.63;;;-0.90;99.90;;;;;;5072551;28;20227;-78
2022/01/08 01:08:17;;;;;;;4.70;3.60;;;-0.90;99.90;;;;;;5072394;28;20300;-77
2022/01/08 01:10:45;;;;;;;5.13;4.20;;;-0.80;99.90;;;;;;5072094;28;20284;-78
2022/01/08 01:13:13;;;;;;;3.80;3.10;;;-0.80;99.90;;;;;;5072581;28;20256;-77
2022/01/08 01:15:43;;;;;;;5.57;3.80;;;-0.80;99.90;;;;;;5072129;28;20248;-77
2022/01/08 01:18:11;;;;;;;4.33;3.93;;;-0.80;99.90;;;;;;5072581;28;20293;-77
2022/01/08 01:20:40;;;;;;;11.20;4.30;;;-0.70;99.90;;;;;;5072425;28;20209;-77
2022/01/08 01:23:12;;;;;;;3.70;3.37;;;-0.70;99.90;;;;;;5072184;28;20213;-78
2022/01/08 01:25:48;;;;;;;3.97;3.57;;;-0.70;99.90;;;;;;5072544;28;20229;-78
2022/01/08 01:28:32;;;;;;;4.30;3.80;;;-0.70;99.90;;;;;;5072581;28;20244;-78
2022/01/08 01:48:03;;;;;;;4.70;4.10;;;-0.80;99.90;;;;;;5013193;28;20307;-79
2022/01/08 01:50:32;;;;;;;5.67;4.50;;;-0.80;99.90;;;;;;5079425;28;20217;-78
2022/01/08 01:53:00;;;;;;;7.53;4.60;;;-0.80;99.90;;;;;;5095182;28;20228;-78
2022/01/08 01:55:28;;;;;;;3.97;3.67;;;-0.80;99.90;;;;;;5095329;28;20316;-78
2022/01/08 01:58:00;;;;;;;5.37;3.83;;;-0.80;99.90;;;;;;5089130;28;20289;-78
2022/01/08 02:00:28;;;;;;;8.80;3.87;;;-0.80;99.90;;;;;;5076786;28;20192;-78
2022/01/08 02:02:57;;;;;;;4.30;3.77;;;-0.80;99.90;;;;;;5077747;28;20201;-78
2022/01/08 02:05:28;;;;;;;5.60;4.17;;;-0.90;99.90;;;;;;5085181;28;20225;-78
2022/01/08 02:07:59;;;;;;;4.27;3.87;;;-0.90;99.90;;;;;;5075540;28;20197;-78
2022/01/08 02:10:28;;;;;;;7.03;4.10;;;-0.90;99.90;;;;;;5075714;28;20254;-78
2022/01/08 02:12:58;;;;;;;4.47;4.07;;;-0.80;99.90;;;;;;5075726;28;20251;-78
2022/01/08 02:15:27;;;;;;;5.10;3.93;;;-0.80;99.90;;;;;;5075299;28;20251;-78
2022/01/08 02:17:55;;;;;;;6.17;3.67;;;-0.80;99.90;;;;;;5075829;28;20209;-78
2022/01/08 02:20:25;;;;;;;3.60;3.30;;;-0.80;99.90;;;;;;5074667;28;20235;-78
2022/01/08 02:22:54;;;;;;;7.03;4.07;;;-0.90;99.90;;;;;;5055579;28;20237;-78
2022/01/08 02:25:23;;;;;;;5.07;3.70;;;-0.90;99.90;;;;;;5055277;28;20289;-78
2022/01/08 02:27:51;;;;;;;4.20;3.60;;;-1.00;99.90;;;;;;5055396;28;20297;-78
2022/01/08 02:30:20;;;;;;;4.70;3.20;;;-1.00;99.90;;;;;;5054960;28;20236;-78
2022/01/08 02:32:48;;;;;;;6.03;3.77;;;-1.00;99.90;;;;;;5055668;28;20221;-78
2022/01/08 02:35:21;;;;;;;4.30;3.53;;;-1.10;99.90;;;;;;5055264;28;20301;-78
2022/01/08 02:37:51;;;;;;;4.73;4.10;;;-1.10;99.90;;;;;;5059560;28;20284;-78
2022/01/08 02:40:20;;;;;;;5.07;3.97;;;-1.10;99.90;;;;;;5085030;22;20249;-78
2022/01/08 02:42:52;;;;;;;6.00;4.30;;;-1.10;99.90;;;;;;5035268;28;20194;-80
2022/01/08 02:45:22;;;;;;;6.07;4.33;;;-1.00;99.90;;;;;;5035251;28;20203;-80
2022/01/08 02:47:53;;;;;;;5.00;4.30;;;-1.00;99.90;;;;;;5035122;28;20214;-80
2022/01/08 02:50:22;;;;;;;4.90;4.40;;;-1.00;99.90;;;;;;5034832;28;20211;-80
2022/01/08 02:52:53;;;;;;;3.93;3.53;;;-1.00;99.90;;;;;;5035222;28;20210;-80
2022/01/08 02:55:22;;;;;;;4.23;3.83;;;-1.00;99.90;;;;;;5034045;28;20226;-80
2022/01/08 02:57:51;;;;;;;9.00;4.77;;;-1.00;99.90;;;;;;5034387;28;20207;-80
2022/01/08 03:00:20;;;;;;;7.23;4.60;;;-1.00;99.90;;;;;;5033220;28;20218;-80
2022/01/08 03:02:52;;;;;;;12.27;5.13;;;-1.10;99.90;;;;;;5034283;28;20199;-80
2022/01/08 03:05:21;;;;;;;9.17;4.77;;;-1.00;99.90;;;;;;5034938;28;20202;-80
2022/01/08 03:07:51;;;;;;;3.77;3.47;;;-1.20;99.90;;;;;;5035159;28;20199;-80
2022/01/08 03:10:20;;;;;;;5.17;3.73;;;-1.10;99.90;;;;;;5034042;28;20219;-80
2022/01/08 03:12:49;;;;;;;7.07;4.23;;;-1.10;99.90;;;;;;5034988;28;20202;-80
2022/01/08 03:15:20;;;;;;;4.87;4.37;;;-1.10;99.90;;;;;;5034232;28;20221;-80
2022/01/08 03:17:49;;;;;;;9.97;4.40;;;-1.10;99.90;;;;;;5034952;28;20230;-80
2022/01/08 03:20:18;;;;;;;6.60;4.60;;;-1.00;99.90;;;;;;5033809;28;20303;-80
2022/01/08 03:22:47;;;;;;;6.33;4.50;;;-1.00;99.90;;;;;;5034800;28;20250;-80
2022/01/08 03:25:17;;;;;;;4.87;4.23;;;-1.00;99.90;;;;;;5034236;28;20257;-80
2022/01/08 03:27:48;;;;;;;4.53;4.00;;;-1.00;99.90;;;;;;5034594;28;20238;-80
2022/01/08 03:30:19;;;;;;;5.57;4.20;;;-0.90;99.90;;;;;;5033494;28;20219;-80
2022/01/08 03:32:47;;;;;;;5.10;4.30;;;-0.90;99.90;;;;;;5034660;28;20206;-80
2022/01/08 03:35:16;;;;;;;4.00;3.57;;;-0.90;99.90;;;;;;5034194;28;20207;-80
2022/01/08 03:37:44;;;;;;;3.70;3.37;;;-0.90;99.90;;;;;;5033770;28;20441;-80
2022/01/08 03:40:13;;;;;;;4.47;3.23;;;-1.00;99.90;;;;;;5032949;28;20249;-80
2022/01/08 03:42:43;;;;;;;4.23;3.43;;;-0.90;99.90;;;;;;5034118;28;20265;-80
2022/01/08 03:45:11;;;;;;;5.80;4.00;;;-0.90;99.90;;;;;;5033898;28;20262;-80
2022/01/08 03:48:05;;;;;;;6.23;3.60;;;-0.90;99.90;;;;;;5033845;28;20202;-81
2022/01/08 03:50:34;;;;;;;3.50;3.20;;;-0.90;99.90;;;;;;5033483;28;20249;-80
2022/01/08 03:53:03;;;;;;;3.67;3.37;;;-0.80;99.90;;;;;;5033631;28;20264;-79
2022/01/08 03:55:31;;;;;;;10.47;4.83;;;-0.80;99.90;;;;;;5033037;28;20278;-79
2022/01/08 03:58:01;;;;;;;4.70;3.77;;;-0.80;99.90;;;;;;5033701;28;20233;-79
2022/01/08 04:00:29;;;;;;;5.27;4.03;;;-0.80;99.90;;;;;;5033199;28;20250;-79
2022/01/08 04:02:58;;;;;;;6.13;3.37;;;-0.80;99.90;;;;;;5034074;28;20198;-79
2022/01/08 04:05:26;;;;;;;3.17;2.90;;;-0.80;99.90;;;;;;5033525;28;20218;-79
2022/01/08 04:07:55;;;;;;;3.63;3.33;;;-0.70;99.90;;;;;;5033063;28;20226;-79
2022/01/08 04:10:23;;;;;;;4.00;3.23;;;-0.70;99.90;;;;;;5032849;28;20242;-79
2022/01/08 04:12:55;;;;;;;5.83;4.10;;;-0.80;99.90;;;;;;5033806;28;20234;-79
2022/01/08 04:15:37;;;;;;;8.10;3.50;;;-0.80;99.90;;;;;;5033388;28;20293;-79
2022/01/08 04:18:05;;;;;;;9.53;3.83;;;-0.80;99.90;;;;;;5033428;28;20202;-79
2022/01/08 04:20:40;;;;;;;3.63;3.13;;;-0.90;99.90;;;;;;5032603;28;20222;-79
2022/01/08 04:23:09;;;;;;;6.17;3.90;;;-0.90;99.90;;;;;;5033445;28;20224;-79
2022/01/08 04:25:37;;;;;;;3.53;3.23;;;-0.90;99.90;;;;;;5033487;28;20238;-79
2022/01/08 04:28:06;;;;;;;3.77;3.47;;;-0.90;99.90;;;;;;5033648;28;20221;-79
2022/01/08 04:30:36;;;;;;;3.87;3.53;;;-1.00;99.90;;;;;;5032559;28;20242;-79
2022/01/08 04:33:04;;;;;;;6.10;3.97;;;-1.10;99.90;;;;;;5033525;28;20262;-79
2022/01/08 04:35:32;;;;;;;4.53;3.80;;;-1.10;99.90;;;;;;5033532;28;20236;-79
2022/01/08 04:38:01;;;;;;;6.70;4.20;;;-1.10;99.90;;;;;;5032771;28;20233;-79
2022/01/08 04:40:29;;;;;;;4.63;3.50;;;-1.20;99.90;;;;;;5032175;28;20249;-79
2022/01/08 04:42:58;;;;;;;3.80;3.30;;;-1.10;99.90;;;;;;5032811;28;20285;-79
2022/01/08 04:45:29;;;;;;;3.73;3.30;;;-1.10;99.90;;;;;;5032907;28;20263;-79
2022/01/08 04:48:01;;;;;;;6.83;4.23;;;-1.10;99.90;;;;;;5032499;28;20258;-79
2022/01/08 04:50:31;;;;;;;4.17;3.53;;;-1.10;99.90;;;;;;5031446;28;20227;-79
2022/01/08 04:53:03;;;;;;;5.73;3.57;;;-1.00;99.90;;;;;;5033327;28;20289;-81
2022/01/08 04:55:31;;;;;;;3.90;3.50;;;-0.90;99.90;;;;;;5031935;28;20394;-79
2022/01/08 04:58:00;;;;;;;5.27;4.03;;;-1.00;99.90;;;;;;5033431;28;20289;-79
2022/01/08 05:00:29;;;;;;;5.57;3.60;;;-0.90;99.90;;;;;;5032479;28;20218;-80
2022/01/08 05:02:59;;;;;;;3.70;3.40;;;-0.90;99.90;;;;;;5033020;28;20225;-81
2022/01/08 05:05:27;;;;;;;3.57;3.27;;;-0.90;99.90;;;;;;5033035;28;20207;-80
2022/01/08 05:07:57;;;;;;;5.30;4.10;;;-0.80;99.90;;;;;;5033911;28;20262;-80
2022/01/08 05:10:25;;;;;;;5.40;3.73;;;-0.80;99.90;;;;;;5036256;28;20305;-80
2022/01/08 05:12:53;;;;;;;3.93;3.53;;;-0.90;99.90;;;;;;5036422;28;20301;-80
2022/01/08 05:15:22;;;;;;;7.23;3.67;;;-0.90;99.90;;;;;;5017631;28;20231;-81
2022/01/08 05:17:54;;;;;;;3.97;3.53;;;-0.80;99.90;;;;;;5036031;28;20202;-81
2022/01/08 05:20:29;;;;;;;4.03;3.27;;;-0.90;99.90;;;;;;5036310;28;20223;-81
2022/01/08 05:23:00;;;;;;;3.97;3.67;;;-0.90;99.90;;;;;;5036830;28;20224;-79
2022/01/08 05:25:30;;;;;;;4.33;3.30;;;-0.90;99.90;;;;;;5036926;28;20217;-80
2022/01/08 05:27:59;;;;;;;4.83;3.90;;;-0.80;99.90;;;;;;5036625;28;20290;-80
2022/01/08 05:30:28;;;;;;;4.37;3.63;;;-0.90;99.90;;;;;;5036136;28;20310;-80
2022/01/08 05:32:57;;;;;;;5.00;3.33;;;-0.90;99.90;;;;;;5036577;28;20227;-80
2022/01/08 05:35:29;;;;;;;5.47;4.23;;;-0.80;99.90;;;;;;5036313;28;20240;-80
2022/01/08 05:37:57;;;;;;;3.63;3.33;;;-0.80;99.90;;;;;;5036580;28;20233;-80
2022/01/08 05:40:25;;;;;;;5.10;4.00;;;-0.80;99.90;;;;;;5035343;28;20297;-80
2022/01/08 05:42:53;;;;;;;5.13;3.83;;;-0.80;99.90;;;;;;5035887;28;20194;-80
2022/01/08 05:45:22;;;;;;;4.13;3.43;;;-0.80;99.90;;;;;;5036252;28;20245;-80
2022/01/08 05:47:50;;;;;;;10.77;4.47;;;-0.80;99.90;;;;;;5036201;28;20262;-81
2022/01/08 05:50:22;;;;;;;10.03;4.80;;;-0.80;99.90;;;;;;5035644;28;20309;-81
2022/01/08 05:52:51;;;;;;;4.53;3.80;;;-0.80;99.90;;;;;;5036288;28;20206;-79
2022/01/08 05:55:20;;;;;;;4.33;3.93;;;-0.80;99.90;;;;;;5034750;28;20230;-79
2022/01/08 05:57:48;;;;;;;5.57;3.97;;;-0.90;99.90;;;;;;5036236;28;20195;-79
2022/01/08 06:00:17;;;;;;;6.60;5.03;;;-0.90;99.90;;;;;;5035063;28;20248;-79
2022/01/08 06:02:47;;;;;;;5.73;3.93;;;-0.90;99.90;;;;;;5020985;28;20227;-79
2022/01/08 06:05:16;;;;;;;7.03;4.13;;;-0.90;99.90;;;;;;5035810;28;20213;-79
2022/01/08 06:07:45;;;;;;;7.57;4.50;;;-0.90;99.90;;;;;;5035959;28;20227;-79
2022/01/08 06:10:14;;;;;;;5.13;3.80;;;-0.90;99.90;;;;;;5034751;28;20325;-81
2022/01/08 06:12:43;;;;;;;6.40;4.63;;;-0.90;99.90;;;;;;5035173;28;20210;-79
2022/01/08 06:15:11;;;;;;;4.07;3.23;;;-0.90;99.90;;;;;;5035989;28;20202;-79
2022/01/08 06:17:40;;;;;;;5.03;4.10;;;-0.90;99.90;;;;;;5035648;28;20276;-79
2022/01/08 06:20:09;;;;;;;5.07;4.23;;;-0.90;99.90;;;;;;5034204;28;20222;-81
2022/01/08 06:22:40;;;;;;;5.07;4.30;;;-0.90;99.90;;;;;;5035625;28;20305;-79
2022/01/08 06:25:09;;;;;;;3.90;3.50;;;-0.90;99.90;;;;;;5035832;28;20258;-79
2022/01/08 06:27:39;;;;;;;5.10;4.60;;;-0.90;99.90;;;;;;5035825;28;20233;-79
2022/01/08 06:30:08;;;;;;;5.47;4.67;;;-0.90;99.90;;;;;;5035400;28;20245;-79
2022/01/08 06:32:39;;;;;;;6.07;4.33;;;-0.90;99.90;;;;;;5035134;28;20262;-79
2022/01/08 06:35:08;;;;;;;4.10;3.47;;;-1.00;99.90;;;;;;5035210;28;20293;-79
2022/01/08 06:37:37;;;;;;;6.00;4.10;;;-1.00;99.90;;;;;;5035719;28;20289;-79
2022/01/08 06:40:09;;;;;;;4.00;3.67;;;-1.00;99.90;;;;;;5034469;28;20310;-79
2022/01/08 06:42:40;;;;;;;4.63;4.20;;;-1.00;99.90;;;;;;5034733;28;20309;-79
2022/01/08 06:45:11;;;;;;;6.43;5.00;;;-1.00;99.90;;;;;;5034727;28;20223;-79
2022/01/08 06:47:42;;;;;;;4.17;3.77;;;-1.00;99.90;;;;;;5035274;28;20271;-79
2022/01/08 06:50:10;;;;;;;3.70;3.33;;;-0.90;99.90;;;;;;5034521;28;20218;-79
2022/01/08 06:52:39;;;;;;;8.13;5.30;;;-1.00;99.90;;;;;;5035261;28;20210;-79
2022/01/08 06:55:08;;;;;;;4.17;3.77;;;-0.90;99.90;;;;;;5034915;28;20203;-79
2022/01/08 06:57:36;;;;;;;5.20;4.30;;;-0.90;99.90;;;;;;5035182;28;20286;-79
2022/01/08 07:00:08;;;;;;;4.27;3.87;;;-0.90;99.90;;;;;;5034511;28;20218;-79
2022/01/08 07:02:36;;;;;;;3.97;3.67;;;-0.90;99.90;;;;;;5034762;28;20268;-80
2022/01/08 07:05:05;;;;;;;4.77;4.13;;;-0.90;99.90;;;;;;5034851;28;20202;-80
2022/01/08 07:07:34;;;;;;;4.50;3.87;;;-0.80;99.90;;;;;;5034638;28;20207;-80
2022/01/08 07:10:03;;;;;;;5.23;4.33;;;-0.80;99.90;;;;;;5034282;28;20288;-81
2022/01/08 07:12:32;;;;;;;5.07;4.30;;;-0.80;99.90;;;;;;5034513;28;20206;-79
2022/01/08 07:15:00;;;;;;;3.93;3.63;;;-0.80;99.90;;;;;;5018809;28;20203;-79
2022/01/08 07:17:31;;;;;;;4.93;4.47;;;-0.80;99.90;;;;;;5034073;28;20195;-79
2022/01/08 07:19:59;;;;;;;6.67;4.07;;;-0.80;99.90;;;;;;5033777;28;20218;-81
2022/01/08 07:22:30;;;;;;;4.30;3.93;;;-0.80;99.90;;;;;;5034381;28;20210;-79
2022/01/08 07:24:58;;;;;;;5.23;4.30;;;-0.70;99.90;;;;;;5034635;28;20256;-79
2022/01/08 07:27:30;;;;;;;17.87;5.80;;;-0.80;99.90;;;;;;5034077;28;20199;-79
2022/01/08 07:29:59;;;;;;;13.27;5.03;;;-0.80;99.90;;;;;;5033121;28;20222;-80
2022/01/08 07:32:27;;;;;;;6.73;4.90;;;-0.70;99.90;;;;;;5034229;28;20280;-79
2022/01/08 07:34:58;;;;;;;5.47;4.90;;;-0.80;99.90;;;;;;5034614;28;20256;-79
2022/01/08 07:37:26;;;;;;;5.50;4.23;;;-0.80;99.90;;;;;;5034451;28;20218;-81
2022/01/08 07:39:55;;;;;;;5.53;4.23;;;-0.90;99.90;;;;;;5033613;28;20313;-79
2022/01/08 07:42:23;;;;;;;6.67;4.60;;;-0.90;99.90;;;;;;5033903;28;20451;-79
2022/01/08 07:44:51;;;;;;;6.33;4.47;;;-0.90;99.90;;;;;;5034301;28;20289;-79
2022/01/08 07:47:19;;;;;;;7.27;5.03;;;-0.90;99.90;;;;;;5034115;28;20329;-79
2022/01/08 07:49:48;;;;;;;7.07;5.07;;;-0.90;99.90;;;;;;5032957;28;20296;-79
2022/01/08 07:52:17;;;;;;;4.13;3.70;;;-0.90;99.90;;;;;;5033794;28;20237;-79
2022/01/08 07:54:46;;;;;;;6.80;4.37;;;-0.90;99.90;;;;;;5033633;28;20233;-79
2022/01/08 07:57:14;;;;;;;4.17;3.77;;;-0.80;99.90;;;;;;5032510;28;20270;-79
2022/01/08 07:59:45;;;;;;;5.30;4.33;;;-0.80;99.90;;;;;;5033412;28;20237;-79
2022/01/08 08:02:14;;;;;;;4.53;4.10;;;-0.80;99.90;;;;;;5034153;28;20218;-79
2022/01/08 08:04:43;;;;;;;4.83;4.00;;;-0.80;99.90;;;;;;5032694;28;20258;-79
2022/01/08 08:07:11;;;;;;;5.30;4.53;;;-0.80;99.90;;;;;;5029664;28;20194;-80
2022/01/08 08:09:41;;;;;;;4.37;3.87;;;-0.80;99.90;;;;;;5032564;28;20206;-81
2022/01/08 08:12:09;;;;;;;3.73;3.43;;;-0.80;99.90;;;;;;5033752;28;20233;-80
2022/01/08 08:14:38;;;;;;;5.43;4.17;;;-0.70;99.90;;;;;;5033843;28;20229;-80
2022/01/08 08:17:08;;;;;;;10.03;5.23;;;-0.70;99.90;;;;;;5033821;28;20206;-80
2022/01/08 08:19:37;;;;;;;10.63;5.33;;;-0.70;99.90;;;;;;5032871;28;20202;-79
2022/01/08 08:22:05;;;;;;;6.03;4.37;;;-0.60;99.90;;;;;;5031676;28;20264;-79
2022/01/08 08:24:43;;;;;;;4.77;3.67;;;-0.60;99.90;;;;;;5032510;28;20195;-79
2022/01/08 08:27:12;;;;;;;9.47;5.03;;;-0.60;99.90;;;;;;5028078;28;20256;-79
2022/01/08 08:29:44;;;;;;;7.10;4.77;;;-0.50;99.90;;;;;;5029069;28;20255;-79
2022/01/08 08:32:12;;;;;;;5.00;4.30;;;-0.50;99.90;;;;;;5033014;28;20210;-79
2022/01/08 08:34:44;;;;;;;4.73;4.07;;;-0.40;99.90;;;;;;5033229;28;20222;-78
2022/01/08 08:37:13;;;;;;;6.13;4.37;;;-0.30;99.90;;;;;;5033024;28;20264;-79
2022/01/08 08:39:41;;;;;;;10.23;4.73;;;-0.20;99.90;;;;;;5032413;28;20226;-80
2022/01/08 08:42:12;;;;;;;5.27;4.77;;;-0.20;99.90;;;;;;5032583;28;20218;-80
2022/01/08 08:44:40;;;;;;;6.93;4.13;;;-0.10;99.90;;;;;;5048039;23;20230;-79
2022/01/08 08:47:09;;;;;;;4.97;4.47;;;0.00;99.90;;;;;;5012491;28;20207;-78
2022/01/08 08:49:39;;;;;;;7.13;4.63;;;0.10;99.90;;;;;;5011923;28;20207;-79
2022/01/08 08:52:21;;;;;;;4.43;4.03;;;0.10;99.90;;;;;;5012063;28;20223;-79
2022/01/08 08:54:49;;;;;;;4.93;4.43;;;0.10;99.90;;;;;;5012788;28;20226;-78
2022/01/08 08:57:19;;;;;;;5.43;4.80;;;0.30;99.90;;;;;;5012667;28;20230;-79
2022/01/08 08:59:48;;;;;;;5.40;4.10;;;0.40;99.90;;;;;;5008414;28;20227;-79
2022/01/08 09:02:16;;;;;;;8.00;4.57;;;0.50;99.90;;;;;;5011573;28;20303;-78
2022/01/08 09:04:45;;;;;;;5.17;4.67;;;0.60;99.90;;;;;;5012094;28;20219;-78
2022/01/08 09:07:13;;;;;;;5.77;5.23;;;0.60;99.90;;;;;;5013240;28;20235;-79
2022/01/08 09:09:43;;;;;;;4.77;4.10;;;0.60;99.90;;;;;;5012567;28;20203;-79
2022/01/08 09:12:15;;;;;;;5.57;4.50;;;0.70;99.90;;;;;;5012443;28;20226;-79
2022/01/08 09:14:45;;;;;;;6.00;4.87;;;0.80;99.90;;;;;;5012400;28;20321;-79
2022/01/08 09:17:14;;;;;;;7.07;4.27;;;0.80;99.90;;;;;;5012644;28;20282;-79
2022/01/08 09:19:44;;;;;;;4.87;4.33;;;0.80;99.90;;;;;;5012447;28;20199;-79
2022/01/08 09:22:13;;;;;;;6.07;4.10;;;0.80;99.90;;;;;;5012534;28;20303;-79
2022/01/08 09:24:41;;;;;;;4.17;3.77;;;0.70;99.90;;;;;;5013236;28;20223;-79
2022/01/08 09:27:11;;;;;;;14.37;6.30;;;0.60;99.90;;;;;;5012767;28;20199;-79
2022/01/08 09:29:39;;;;;;;4.50;4.10;;;0.70;99.90;;;;;;5012183;28;20266;-78
2022/01/08 09:32:10;;;;;;;9.77;5.73;;;0.80;99.90;;;;;;5012896;28;20298;-79
2022/01/08 09:34:43;;;;;;;6.93;5.00;;;0.90;99.90;;;;;;5011917;28;20223;-79
2022/01/08 09:37:11;;;;;;;7.03;5.60;;;1.00;99.90;;;;;;5012090;28;20195;-79
2022/01/08 09:39:40;;;;;;;5.27;4.73;;;1.00;99.90;;;;;;5012001;28;20215;-79
2022/01/08 09:42:10;;;;;;;5.83;4.90;;;1.20;99.90;;;;;;5012227;28;20231;-79
2022/01/08 09:44:43;;;;;;;5.63;5.13;;;1.20;99.90;;;;;;5012064;28;20239;-79
2022/01/08 09:47:13;;;;;;;6.27;5.60;;;1.30;99.90;;;;;;5012886;28;20211;-79
2022/01/08 09:49:41;;;;;;;8.77;5.80;;;1.30;99.90;;;;;;5011863;28;20265;-79
2022/01/08 09:52:10;;;;;;;4.50;4.10;;;1.30;99.90;;;;;;5012568;28;20274;-79
2022/01/08 09:54:40;;;;;;;6.33;5.47;;;1.40;99.90;;;;;;5014710;28;20244;-79
2022/01/08 09:57:09;;;;;;;9.73;5.10;;;1.30;99.90;;;;;;5015804;28;20207;-79
2022/01/08 09:59:37;;;;;;;7.43;5.03;;;1.30;99.90;;;;;;5015416;28;20207;-79
2022/01/08 10:02:06;;;;;;;6.07;4.43;;;1.30;99.90;;;;;;5016341;28;20291;-79
2022/01/08 10:04:38;;;;;;;6.33;4.93;;;1.30;99.90;;;;;;5015456;28;20290;-79
2022/01/08 10:07:15;;;;;;;6.37;4.80;;;1.40;99.90;;;;;;5015380;28;20203;-79
2022/01/08 10:10:01;;;;;;;8.33;4.80;;;1.40;99.90;;;;;;5015493;28;20238;-79
2022/01/08 10:12:46;;;;;;;11.70;4.93;;;1.50;99.90;;;;;;5015709;28;20218;-79
2022/01/08 10:18:05;;;;;;;4.57;4.17;;;1.50;99.90;;;;;;5013803;28;20266;-79
2022/01/08 10:20:38;;;;;;;4.80;3.93;;;1.50;99.90;;;;;;5014267;28;20195;-79
2022/01/08 10:23:16;;;;;;;4.13;3.73;;;1.40;99.90;;;;;;5015251;28;20300;-79
2022/01/08 10:25:56;;;;;;;4.80;4.00;;;1.20;99.90;;;;;;5015416;28;20281;-80
2022/01/08 10:28:34;;;;;;;4.73;4.23;;;1.20;99.90;;;;;;5015668;28;20283;-79
2022/01/08 10:31:28;;;;;;;5.90;3.60;;;1.20;99.90;;;;;;5015011;28;20199;-79
2022/01/08 10:34:06;;;;;;;5.70;5.10;;;1.10;99.90;;;;;;5005709;28;20303;-79
2022/01/08 10:36:37;;;;;;;5.67;4.53;;;1.00;99.90;;;;;;5015376;28;20274;-79
2022/01/08 10:39:09;;;;;;;12.87;4.80;;;1.00;99.90;;;;;;5014620;28;20290;-79
2022/01/08 10:41:41;;;;;;;7.07;4.17;;;1.10;99.90;;;;;;5015311;28;20203;-79
2022/01/08 10:44:13;;;;;;;9.27;4.60;;;1.00;99.90;;;;;;5014665;28;20224;-84
2022/01/08 10:46:46;;;;;;;8.50;5.43;;;1.10;99.90;;;;;;5015171;28;20233;-84
2022/01/08 10:49:18;;;;;;;6.07;4.93;;;1.10;99.90;;;;;;5012486;28;20207;-84
2022/01/08 10:51:51;;;;;;;8.57;5.13;;;1.10;99.90;;;;;;5014497;28;20207;-84
2022/01/08 10:54:25;;;;;;;6.67;5.97;;;1.10;99.90;;;;;;5008558;28;20215;-83
2022/01/08 10:56:56;;;;;;;4.80;4.40;;;1.10;99.90;;;;;;5014965;28;20202;-83
2022/01/08 10:59:26;;;;;;;6.77;5.10;;;1.10;99.90;;;;;;5007593;28;20200;-83
2022/01/08 11:01:58;;;;;;;5.90;5.03;;;1.20;99.90;;;;;;5007422;28;20200;-83
2022/01/08 11:04:43;;;;;;;6.53;4.87;;;1.20;99.90;;;;;;5013300;28;20241;-83
2022/01/08 11:07:16;;;;;;;5.33;4.73;;;1.30;99.90;;;;;;5015017;28;20207;-83
2022/01/08 11:09:47;;;;;;;4.17;3.80;;;1.40;99.90;;;;;;5013584;28;20219;-83
2022/01/08 11:12:18;;;;;;;5.60;5.10;;;1.50;99.90;;;;;;5014584;28;20211;-83
2022/01/08 11:17:37;;;;;;;7.10;5.13;;;1.80;99.90;;;;;;4998373;28;20254;-83
2022/01/08 11:20:09;;;;;;;7.07;5.50;;;2.00;99.90;;;;;;5001280;28;20199;-83
2022/01/08 11:22:42;;;;;;;5.00;4.55;;;2.00;99.90;;;;;;5014715;28;20265;-83
2022/01/08 11:25:13;;;;;;;4.93;4.00;;;2.00;99.90;;;;;;5012691;28;20215;-83
2022/01/08 11:27:53;;;;;;;8.57;4.90;;;2.00;99.90;;;;;;5003754;28;20485;-83
2022/01/08 11:30:25;;;;;;;6.00;5.17;;;1.90;99.90;;;;;;5013927;28;20214;-83
2022/01/08 11:33:09;;;;;;;5.33;4.77;;;2.00;99.90;;;;;;5014185;28;20257;-83
2022/01/08 11:35:42;;;;;;;5.22;4.60;;;2.10;99.90;;;;;;5014188;28;20227;-83
2022/01/08 11:38:20;;;;;;;8.63;5.45;;;2.20;99.90;;;;;;5014592;28;20206;-83
2022/01/08 11:41:00;;;;;;;6.28;5.22;;;2.30;99.90;;;;;;5013153;28;20206;-83
2022/01/08 11:43:36;;;;;;;5.55;4.35;;;2.30;99.90;;;;;;5009169;28;20302;-82
2022/01/08 11:46:08;;;;;;;5.53;4.85;;;2.30;99.90;;;;;;5004088;28;20259;-82
2022/01/08 11:48:39;;;;;;;9.23;5.32;;;2.40;99.90;;;;;;5003281;28;20196;-82
2022/01/08 11:51:08;;;;;;;6.45;4.95;;;2.70;99.90;;;;;;5012939;28;20203;-84
2022/01/08 11:53:56;;;;;;;5.97;5.38;;;3.00;99.90;;;;;;5014153;28;20206;-82
2022/01/08 11:56:46;;;;;;;6.80;5.75;;;3.70;99.90;;;;;;5006790;28;20257;-82
2022/01/08 11:59:21;;;;;;;5.95;5.07;;;4.10;99.90;;;;;;5013410;28;20301;-82
2022/01/08 12:02:07;;;;;;;7.40;5.40;;;4.70;99.90;;;;;;5014275;28;20199;-82
2022/01/08 12:04:36;;;;;;;7.63;5.72;;;5.10;99.90;;;;;;5012726;28;20249;-82
2022/01/08 12:07:25;;;;;;;6.20;4.90;;;5.30;99.90;;;;;;5013395;28;20206;-81
2022/01/08 12:10:12;;;;;;;7.80;5.90;;;5.70;99.90;;;;;;4993682;28;20271;-82
2022/01/08 12:12:46;;;;;;;5.22;4.65;;;5.70;99.90;;;;;;5000969;28;20238;-82
2022/01/08 12:15:14;;;;;;;7.35;5.28;;;5.80;99.90;;;;;;5013418;28;20227;-82
2022/01/08 12:17:53;;;;;;;7.20;5.00;;;5.60;99.90;;;;;;5012582;28;20203;-83
2022/01/08 12:20:42;;;;;;;5.53;5.00;;;5.50;99.90;;;;;;5013330;28;20214;-83
2022/01/08 12:23:31;;;;;;;6.70;5.10;;;5.30;99.90;;;;;;5013650;28;20279;-83
2022/01/08 12:26:04;;;;;;;6.90;5.57;;;5.30;99.90;;;;;;5008907;28;20239;-83
2022/01/08 12:29:01;;;;;;;7.28;5.53;;;5.70;99.90;;;;;;5006032;28;20225;-83
2022/01/08 12:31:37;;;;;;;21.55;5.63;;;6.00;99.90;;;;;;4990127;28;20234;-83
2022/01/08 12:34:48;;;;;;;5.30;4.80;;;6.00;99.90;;;;;;5013010;28;20203;-83
2022/01/08 12:37:19;;;;;;;4.88;4.32;;;5.70;99.90;;;;;;5012964;28;20207;-83
2022/01/08 12:40:01;;;;;;;7.07;6.28;;;5.70;99.90;;;;;;5013003;28;20203;-83
2022/01/08 12:42:46;;;;;;;6.63;4.78;;;5.60;99.90;;;;;;5013031;28;20229;-83
2022/01/08 12:45:19;;;;;;;7.22;5.35;;;5.50;99.90;;;;;;5010946;28;20231;-84
2022/01/08 12:47:51;;;;;;;5.93;4.85;;;5.60;99.90;;;;;;4994128;28;20305;-83
2022/01/08 12:50:38;;;;;;;11.23;5.18;;;5.50;99.90;;;;;;4997266;28;20253;-82
2022/01/08 12:53:23;;;;;;;6.20;5.15;;;5.50;99.90;;;;;;5013053;28;20195;-82
2022/01/08 12:56:19;;;;;;;5.78;4.97;;;5.50;99.90;;;;;;5012692;28;20250;-82
2022/01/08 12:58:51;;;;;;;7.10;5.05;;;5.60;99.90;;;;;;4950367;28;20278;-82
2022/01/08 13:01:25;;;;;;;5.13;4.60;;;5.70;99.90;;;;;;5001538;28;20195;-82
2022/01/08 13:03:55;;;;;;;6.80;5.18;;;5.80;99.90;;;;;;5000587;28;20227;-82
2022/01/08 13:06:35;;;;;;;5.53;4.95;;;5.90;99.90;;;;;;5005929;28;20211;-83
2022/01/08 13:09:05;;;;;;;6.45;4.82;;;6.40;99.90;;;;;;5009358;28;20195;-83
2022/01/08 13:11:34;;;;;;;8.93;4.95;;;6.50;99.90;;;;;;5012032;28;20249;-83
2022/01/08 13:14:06;;;;;;;6.10;4.95;;;6.00;99.90;;;;;;5012633;28;20234;-84
2022/01/08 13:16:37;;;;;;;4.90;4.50;;;5.60;99.90;;;;;;5012172;28;20211;-82
2022/01/08 13:19:08;;;;;;;6.32;5.68;;;5.20;99.90;;;;;;5012196;28;20379;-87
2022/01/08 13:21:38;;;;;;;6.10;4.93;;;4.90;99.90;;;;;;5012603;28;20203;-84
2022/01/08 13:24:13;;;;;;;6.03;5.43;;;4.60;99.90;;;;;;5012675;28;20208;-84
2022/01/08 13:26:43;;;;;;;8.45;5.55;;;4.30;99.90;;;;;;5011786;28;20268;-83
2022/01/08 13:29:24;;;;;;;5.43;4.93;;;4.10;99.90;;;;;;5012921;28;20203;-83
2022/01/08 13:31:55;;;;;;;7.85;4.82;;;3.90;99.90;;;;;;5015603;28;20307;-83
2022/01/08 13:34:25;;;;;;;4.93;4.38;;;3.80;99.90;;;;;;5014959;28;20227;-84